sensor_id;sensor_type;location;lat;lon;timestamp;pressure;altitude;pressure_sealevel;temperature;humidity
692;BME280;70475;50.084;8.576;2024-02-04T00:01:21;101602.09;;;9.45;100.00
692;BME280;70475;50.084;8.576;2024-02-04T00:03:49;101597.38;;;9.39;100.00
692;BME280;70475;50.084;8.576;2024-02-04T00:06:17;101591.59;;;9.44;100.00
692;BME280;70475;50.084;8.576;2024-02-04T00:08:45;101595.06;;;9.44;100.00
692;BME280;70475;50.084;8.576;2024-02-04T00:11:13;101593.25;;;9.45;100.00
692;BME280;70475;50.084;8.576;2024-02-04T00:13:41;101588.94;;;9.44;100.00
692;BME280;70475;50.084;8.576;2024-02-04T00:16:08;101579.88;;;9.37;100.00
692;BME280;70475;50.084;8.576;2024-02-04T00:18:38;101584.22;;;9.38;100.00
692;BME280;70475;50.084;8.576;2024-02-04T00:21:06;101577.06;;;9.38;100.00
692;BME280;70475;50.084;8.576;2024-02-04T00:23:34;101585.50;;;9.34;100.00
692;BME280;70475;50.084;8.576;2024-02-04T00:26:01;101585.50;;;9.34;100.00
692;BME280;70475;50.084;8.576;2024-02-04T00:28:29;101581.19;;;9.33;100.00
692;BME280;70475;50.084;8.576;2024-02-04T00:30:56;101581.56;;;9.38;100.00
692;BME280;70475;50.084;8.576;2024-02-04T00:33:25;101577.91;;;9.39;100.00
692;BME280;70475;50.084;8.576;2024-02-04T00:35:55;101575.56;;;9.36;100.00
692;BME280;70475;50.084;8.576;2024-02-04T00:38:22;101568.91;;;9.32;100.00
692;BME280;70475;50.084;8.576;2024-02-04T00:40:50;101565.09;;;9.34;100.00
692;BME280;70475;50.084;8.576;2024-02-04T00:43:18;101568.28;;;9.38;100.00
692;BME280;70475;50.084;8.576;2024-02-04T00:45:46;101561.44;;;9.35;100.00
692;BME280;70475;50.084;8.576;2024-02-04T00:48:13;101571.25;;;9.35;100.00
692;BME280;70475;50.084;8.576;2024-02-04T00:50:41;101565.22;;;9.33;100.00
692;BME280;70475;50.084;8.576;2024-02-04T00:53:10;101568.75;;;9.33;100.00
692;BME280;70475;50.084;8.576;2024-02-04T00:55:38;101567.75;;;9.34;100.00
692;BME280;70475;50.084;8.576;2024-02-04T00:58:05;101573.75;;;9.36;100.00
692;BME280;70475;50.084;8.576;2024-02-04T01:00:33;101579.38;;;9.33;100.00
692;BME280;70475;50.084;8.576;2024-02-04T01:03:00;101577.53;;;9.34;100.00
692;BME280;70475;50.084;8.576;2024-02-04T01:05:28;101576.88;;;9.32;100.00
692;BME280;70475;50.084;8.576;2024-02-04T01:07:56;101573.22;;;9.33;100.00
692;BME280;70475;50.084;8.576;2024-02-04T01:10:24;101572.75;;;9.37;100.00
692;BME280;70475;50.084;8.576;2024-02-04T01:12:52;101570.25;;;9.36;100.00
692;BME280;70475;50.084;8.576;2024-02-04T01:15:20;101572.91;;;9.36;100.00
692;BME280;70475;50.084;8.576;2024-02-04T01:17:47;101564.78;;;9.37;100.00
692;BME280;70475;50.084;8.576;2024-02-04T01:20:15;101561.44;;;9.35;100.00
692;BME280;70475;50.084;8.576;2024-02-04T01:22:42;101553.00;;;9.40;100.00
692;BME280;70475;50.084;8.576;2024-02-04T01:25:10;101567.28;;;9.39;100.00
692;BME280;70475;50.084;8.576;2024-02-04T01:27:39;101576.09;;;9.39;100.00
692;BME280;70475;50.084;8.576;2024-02-04T01:30:07;101581.41;;;9.39;100.00
692;BME280;70475;50.084;8.576;2024-02-04T01:32:34;101579.72;;;9.38;100.00
692;BME280;70475;50.084;8.576;2024-02-04T01:35:02;101574.56;;;9.37;100.00
692;BME280;70475;50.084;8.576;2024-02-04T01:37:30;101586.59;;;9.41;100.00
692;BME280;70475;50.084;8.576;2024-02-04T01:39:57;101572.91;;;9.36;100.00
692;BME280;70475;50.084;8.576;2024-02-04T01:42:25;101577.63;;;9.42;100.00
692;BME280;70475;50.084;8.576;2024-02-04T01:44:54;101578.84;;;9.30;100.00
692;BME280;70475;50.084;8.576;2024-02-04T01:47:22;101586.41;;;9.25;100.00
692;BME280;70475;50.084;8.576;2024-02-04T01:49:49;101583.75;;;9.25;100.00
692;BME280;70475;50.084;8.576;2024-02-04T01:52:17;101589.06;;;9.25;100.00
692;BME280;70475;50.084;8.576;2024-02-04T01:54:46;101592.06;;;9.22;100.00
692;BME280;70475;50.084;8.576;2024-02-04T01:57:14;101588.72;;;9.20;100.00
692;BME280;70475;50.084;8.576;2024-02-04T01:59:41;101589.31;;;9.14;100.00
692;BME280;70475;50.084;8.576;2024-02-04T02:02:10;101597.72;;;9.09;100.00
692;BME280;70475;50.084;8.576;2024-02-04T02:04:38;101592.19;;;9.03;100.00
692;BME280;70475;50.084;8.576;2024-02-04T02:07:06;101595.63;;;8.95;100.00
692;BME280;70475;50.084;8.576;2024-02-04T02:09:34;101597.72;;;8.92;100.00
692;BME280;70475;50.084;8.576;2024-02-04T02:12:08;101587.84;;;8.84;100.00
692;BME280;70475;50.084;8.576;2024-02-04T02:14:39;101588.28;;;8.80;100.00
692;BME280;70475;50.084;8.576;2024-02-04T02:17:12;101582.28;;;8.78;100.00
692;BME280;70475;50.084;8.576;2024-02-04T02:19:48;101586.53;;;8.71;100.00
692;BME280;70475;50.084;8.576;2024-02-04T02:22:25;101579.53;;;8.70;100.00
692;BME280;70475;50.084;8.576;2024-02-04T02:24:56;101579.00;;;8.66;100.00
692;BME280;70475;50.084;8.576;2024-02-04T02:27:24;101580.00;;;8.65;100.00
692;BME280;70475;50.084;8.576;2024-02-04T02:29:52;101573.63;;;8.58;100.00
692;BME280;70475;50.084;8.576;2024-02-04T02:32:19;101569.56;;;8.54;100.00
692;BME280;70475;50.084;8.576;2024-02-04T02:34:47;101569.41;;;8.56;100.00
692;BME280;70475;50.084;8.576;2024-02-04T02:37:22;101573.50;;;8.50;100.00
692;BME280;70475;50.084;8.576;2024-02-04T02:39:58;101563.03;;;8.49;100.00
692;BME280;70475;50.084;8.576;2024-02-04T02:42:28;101570.16;;;8.48;100.00
692;BME280;70475;50.084;8.576;2024-02-04T02:44:57;101567.13;;;8.43;100.00
692;BME280;70475;50.084;8.576;2024-02-04T02:47:26;101549.81;;;8.39;100.00
692;BME280;70475;50.084;8.576;2024-02-04T02:49:56;101562.09;;;8.40;100.00
692;BME280;70475;50.084;8.576;2024-02-04T02:52:24;101554.28;;;8.38;100.00
692;BME280;70475;50.084;8.576;2024-02-04T02:54:51;101544.09;;;8.34;100.00
692;BME280;70475;50.084;8.576;2024-02-04T02:57:20;101553.88;;;8.33;100.00
692;BME280;70475;50.084;8.576;2024-02-04T02:59:48;101543.56;;;8.30;100.00
692;BME280;70475;50.084;8.576;2024-02-04T03:02:15;101540.91;;;8.30;100.00
692;BME280;70475;50.084;8.576;2024-02-04T03:04:43;101533.94;;;8.29;100.00
692;BME280;70475;50.084;8.576;2024-02-04T03:07:11;101529.63;;;8.28;100.00
692;BME280;70475;50.084;8.576;2024-02-04T03:09:38;101525.13;;;8.29;100.00
692;BME280;70475;50.084;8.576;2024-02-04T03:12:06;101523.31;;;8.29;100.00
692;BME280;70475;50.084;8.576;2024-02-04T03:14:35;101515.22;;;8.31;100.00
692;BME280;70475;50.084;8.576;2024-02-04T03:17:02;101522.03;;;8.33;100.00
692;BME280;70475;50.084;8.576;2024-02-04T03:19:30;101527.34;;;8.33;100.00
692;BME280;70475;50.084;8.576;2024-02-04T03:21:58;101533.66;;;8.32;100.00
692;BME280;70475;50.084;8.576;2024-02-04T03:24:25;101530.00;;;8.33;100.00
692;BME280;70475;50.084;8.576;2024-02-04T03:26:53;101526.69;;;8.31;100.00
692;BME280;70475;50.084;8.576;2024-02-04T03:29:21;101525.81;;;8.31;100.00
692;BME280;70475;50.084;8.576;2024-02-04T03:31:49;101524.03;;;8.31;100.00
692;BME280;70475;50.084;8.576;2024-02-04T03:34:17;101524.97;;;8.30;100.00
692;BME280;70475;50.084;8.576;2024-02-04T03:36:45;101537.00;;;8.34;100.00
692;BME280;70475;50.084;8.576;2024-02-04T03:39:12;101527.94;;;8.27;100.00
692;BME280;70475;50.084;8.576;2024-02-04T03:41:40;101519.00;;;8.28;100.00
692;BME280;70475;50.084;8.576;2024-02-04T03:44:08;101510.06;;;8.29;100.00
692;BME280;70475;50.084;8.576;2024-02-04T03:46:35;101512.84;;;8.28;100.00
692;BME280;70475;50.084;8.576;2024-02-04T03:49:07;101518.31;;;8.26;100.00
692;BME280;70475;50.084;8.576;2024-02-04T03:51:35;101513.00;;;8.26;100.00
692;BME280;70475;50.084;8.576;2024-02-04T03:54:03;101512.44;;;8.23;100.00
692;BME280;70475;50.084;8.576;2024-02-04T03:56:30;101510.78;;;8.22;100.00
692;BME280;70475;50.084;8.576;2024-02-04T03:58:58;101507.69;;;8.26;100.00
692;BME280;70475;50.084;8.576;2024-02-04T04:01:25;101500.03;;;8.23;100.00
692;BME280;70475;50.084;8.576;2024-02-04T04:03:53;101516.66;;;8.25;100.00
692;BME280;70475;50.084;8.576;2024-02-04T04:06:22;101513.28;;;8.23;100.00
692;BME280;70475;50.084;8.576;2024-02-04T04:08:50;101514.97;;;8.24;100.00
692;BME280;70475;50.084;8.576;2024-02-04T04:11:17;101516.34;;;8.28;100.00
692;BME280;70475;50.084;8.576;2024-02-04T04:13:45;101520.25;;;8.24;100.00
692;BME280;70475;50.084;8.576;2024-02-04T04:16:12;101512.16;;;8.26;100.00
692;BME280;70475;50.084;8.576;2024-02-04T04:18:40;101510.34;;;8.26;100.00
692;BME280;70475;50.084;8.576;2024-02-04T04:21:07;101512.31;;;8.24;100.00
692;BME280;70475;50.084;8.576;2024-02-04T04:23:36;101512.72;;;8.29;100.00
692;BME280;70475;50.084;8.576;2024-02-04T04:26:04;101521.22;;;8.33;100.00
692;BME280;70475;50.084;8.576;2024-02-04T04:28:32;101519.22;;;8.35;100.00
692;BME280;70475;50.084;8.576;2024-02-04T04:30:59;101515.47;;;8.38;100.00
692;BME280;70475;50.084;8.576;2024-02-04T04:33:27;101503.16;;;8.36;100.00
692;BME280;70475;50.084;8.576;2024-02-04T04:35:54;101497.56;;;8.39;100.00
692;BME280;70475;50.084;8.576;2024-02-04T04:38:22;101498.25;;;8.42;100.00
692;BME280;70475;50.084;8.576;2024-02-04T04:40:51;101506.22;;;8.42;100.00
692;BME280;70475;50.084;8.576;2024-02-04T04:43:18;101494.31;;;8.46;100.00
692;BME280;70475;50.084;8.576;2024-02-04T04:45:46;101487.19;;;8.46;100.00
692;BME280;70475;50.084;8.576;2024-02-04T04:48:14;101491.66;;;8.46;100.00
692;BME280;70475;50.084;8.576;2024-02-04T04:50:41;101489.25;;;8.52;100.00
692;BME280;70475;50.084;8.576;2024-02-04T04:53:09;101495.06;;;8.56;100.00
692;BME280;70475;50.084;8.576;2024-02-04T04:55:36;101498.03;;;8.53;100.00
692;BME280;70475;50.084;8.576;2024-02-04T04:58:05;101493.28;;;8.56;100.00
692;BME280;70475;50.084;8.576;2024-02-04T05:00:33;101495.06;;;8.56;100.00
692;BME280;70475;50.084;8.576;2024-02-04T05:03:00;101495.94;;;8.56;100.00
692;BME280;70475;50.084;8.576;2024-02-04T05:05:28;101502.59;;;8.60;100.00
692;BME280;70475;50.084;8.576;2024-02-04T05:07:55;101499.13;;;8.60;100.00
692;BME280;70475;50.084;8.576;2024-02-04T05:10:23;101495.72;;;8.67;100.00
692;BME280;70475;50.084;8.576;2024-02-04T05:12:50;101504.19;;;8.71;100.00
692;BME280;70475;50.084;8.576;2024-02-04T05:15:19;101499.13;;;8.77;100.00
692;BME280;70475;50.084;8.576;2024-02-04T05:17:47;101501.53;;;8.71;100.00
692;BME280;70475;50.084;8.576;2024-02-04T05:20:15;101492.06;;;8.68;100.00
692;BME280;70475;50.084;8.576;2024-02-04T05:22:43;101487.47;;;8.70;100.00
692;BME280;70475;50.084;8.576;2024-02-04T05:25:10;101496.84;;;8.65;100.00
692;BME280;70475;50.084;8.576;2024-02-04T05:27:38;101503.00;;;8.65;100.00
692;BME280;70475;50.084;8.576;2024-02-04T05:30:09;101498.53;;;8.66;100.00
692;BME280;70475;50.084;8.576;2024-02-04T05:32:38;101498.38;;;8.67;100.00
692;BME280;70475;50.084;8.576;2024-02-04T05:35:07;101501.84;;;8.68;100.00
692;BME280;70475;50.084;8.576;2024-02-04T05:37:35;101516.50;;;8.72;100.00
692;BME280;70475;50.084;8.576;2024-02-04T05:40:03;101504.91;;;8.73;100.00
692;BME280;70475;50.084;8.576;2024-02-04T05:42:31;101508.69;;;8.70;100.00
692;BME280;70475;50.084;8.576;2024-02-04T05:44:59;101506.19;;;8.69;100.00
692;BME280;70475;50.084;8.576;2024-02-04T05:47:26;101509.50;;;8.71;100.00
692;BME280;70475;50.084;8.576;2024-02-04T05:49:55;101509.00;;;8.67;100.00
692;BME280;70475;50.084;8.576;2024-02-04T05:52:23;101509.97;;;8.66;100.00
692;BME280;70475;50.084;8.576;2024-02-04T05:54:51;101511.09;;;8.64;100.00
692;BME280;70475;50.084;8.576;2024-02-04T05:57:18;101508.16;;;8.67;100.00
692;BME280;70475;50.084;8.576;2024-02-04T05:59:46;101499.34;;;8.66;100.00
692;BME280;70475;50.084;8.576;2024-02-04T06:02:14;101502.28;;;8.63;100.00
692;BME280;70475;50.084;8.576;2024-02-04T06:04:42;101513.63;;;8.65;100.00
692;BME280;70475;50.084;8.576;2024-02-04T06:07:11;101508.84;;;8.69;100.00
692;BME280;70475;50.084;8.576;2024-02-04T06:09:39;101500.41;;;8.73;100.00
692;BME280;70475;50.084;8.576;2024-02-04T06:12:06;101506.03;;;8.70;100.00
692;BME280;70475;50.084;8.576;2024-02-04T06:14:34;101499.03;;;8.69;100.00
692;BME280;70475;50.084;8.576;2024-02-04T06:17:01;101504.00;;;8.82;100.00
692;BME280;70475;50.084;8.576;2024-02-04T06:19:28;101507.63;;;8.81;100.00
692;BME280;70475;50.084;8.576;2024-02-04T06:21:56;101507.91;;;8.78;100.00
692;BME280;70475;50.084;8.576;2024-02-04T06:24:25;101506.50;;;8.83;100.00
692;BME280;70475;50.084;8.576;2024-02-04T06:26:53;101501.34;;;8.82;100.00
692;BME280;70475;50.084;8.576;2024-02-04T06:29:20;101502.00;;;8.84;100.00
692;BME280;70475;50.084;8.576;2024-02-04T06:31:48;101492.47;;;8.91;100.00
692;BME280;70475;50.084;8.576;2024-02-04T06:34:15;101493.44;;;8.90;100.00
692;BME280;70475;50.084;8.576;2024-02-04T06:36:43;101500.72;;;8.88;100.00
692;BME280;70475;50.084;8.576;2024-02-04T06:39:12;101492.00;;;8.95;100.00
692;BME280;70475;50.084;8.576;2024-02-04T06:41:40;101489.13;;;8.89;100.00
692;BME280;70475;50.084;8.576;2024-02-04T06:44:08;101477.03;;;8.94;100.00
692;BME280;70475;50.084;8.576;2024-02-04T06:46:35;101479.22;;;8.99;100.00
692;BME280;70475;50.084;8.576;2024-02-04T06:49:03;101484.84;;;8.96;100.00
692;BME280;70475;50.084;8.576;2024-02-04T06:51:31;101489.88;;;8.99;100.00
692;BME280;70475;50.084;8.576;2024-02-04T06:53:58;101482.19;;;8.96;100.00
692;BME280;70475;50.084;8.576;2024-02-04T06:56:27;101475.06;;;8.96;100.00
692;BME280;70475;50.084;8.576;2024-02-04T06:58:56;101480.09;;;8.99;100.00
692;BME280;70475;50.084;8.576;2024-02-04T07:01:23;101474.47;;;9.02;100.00
692;BME280;70475;50.084;8.576;2024-02-04T07:03:51;101469.00;;;9.04;100.00
692;BME280;70475;50.084;8.576;2024-02-04T07:06:19;101481.22;;;8.97;100.00
692;BME280;70475;50.084;8.576;2024-02-04T07:08:46;101466.94;;;8.98;100.00
692;BME280;70475;50.084;8.576;2024-02-04T07:11:14;101473.78;;;9.00;100.00
692;BME280;70475;50.084;8.576;2024-02-04T07:13:42;101481.22;;;8.97;100.00
692;BME280;70475;50.084;8.576;2024-02-04T07:16:11;101477.28;;;9.01;100.00
692;BME280;70475;50.084;8.576;2024-02-04T07:18:39;101480.59;;;9.03;100.00
692;BME280;70475;50.084;8.576;2024-02-04T07:21:06;101483.09;;;9.04;100.00
692;BME280;70475;50.084;8.576;2024-02-04T07:23:34;101487.81;;;9.10;100.00
692;BME280;70475;50.084;8.576;2024-02-04T07:26:01;101479.66;;;9.12;100.00
692;BME280;70475;50.084;8.576;2024-02-04T07:28:29;101483.03;;;9.14;100.00
692;BME280;70475;50.084;8.576;2024-02-04T07:30:56;101483.03;;;9.14;100.00
692;BME280;70475;50.084;8.576;2024-02-04T07:33:25;101485.53;;;9.15;100.00
692;BME280;70475;50.084;8.576;2024-02-04T07:35:57;101490.84;;;9.15;100.00
692;BME280;70475;50.084;8.576;2024-02-04T07:38:24;101497.16;;;9.14;100.00
692;BME280;70475;50.084;8.576;2024-02-04T07:40:52;101488.88;;;9.17;100.00
692;BME280;70475;50.084;8.576;2024-02-04T07:43:21;101488.56;;;9.20;100.00
692;BME280;70475;50.084;8.576;2024-02-04T07:45:49;101492.72;;;9.23;100.00
692;BME280;70475;50.084;8.576;2024-02-04T07:48:18;101486.25;;;9.25;100.00
692;BME280;70475;50.084;8.576;2024-02-04T07:50:47;101494.94;;;9.27;100.00
692;BME280;70475;50.084;8.576;2024-02-04T07:53:14;101505.56;;;9.27;100.00
692;BME280;70475;50.084;8.576;2024-02-04T07:55:42;101506.06;;;9.31;100.00
692;BME280;70475;50.084;8.576;2024-02-04T07:58:10;101503.88;;;9.26;100.00
692;BME280;70475;50.084;8.576;2024-02-04T08:00:37;101495.75;;;9.28;100.00
692;BME280;70475;50.084;8.576;2024-02-04T08:03:05;101484.97;;;9.29;100.00
692;BME280;70475;50.084;8.576;2024-02-04T08:05:33;101483.00;;;9.31;100.00
692;BME280;70475;50.084;8.576;2024-02-04T08:08:03;101487.00;;;9.35;100.00
692;BME280;70475;50.084;8.576;2024-02-04T08:10:31;101470.22;;;9.35;100.00
692;BME280;70475;50.084;8.576;2024-02-04T08:12:59;101463.22;;;9.34;100.00
692;BME280;70475;50.084;8.576;2024-02-04T08:15:26;101474.31;;;9.47;100.00
692;BME280;70475;50.084;8.576;2024-02-04T08:17:54;101452.13;;;9.38;100.00
692;BME280;70475;50.084;8.576;2024-02-04T08:20:22;101453.19;;;9.45;100.00
692;BME280;70475;50.084;8.576;2024-02-04T08:22:51;101475.28;;;9.46;100.00
692;BME280;70475;50.084;8.576;2024-02-04T08:25:20;101466.81;;;9.42;100.00
692;BME280;70475;50.084;8.576;2024-02-04T08:27:48;101465.81;;;9.43;100.00
692;BME280;70475;50.084;8.576;2024-02-04T08:30:15;101475.13;;;9.47;100.00
692;BME280;70475;50.084;8.576;2024-02-04T08:32:45;101482.63;;;9.52;100.00
692;BME280;70475;50.084;8.576;2024-02-04T08:35:12;101467.53;;;9.52;100.00
692;BME280;70475;50.084;8.576;2024-02-04T08:37:40;101485.13;;;9.53;100.00
692;BME280;70475;50.084;8.576;2024-02-04T08:40:09;101477.63;;;9.49;100.00
692;BME280;70475;50.084;8.576;2024-02-04T08:42:38;101487.91;;;9.44;100.00
692;BME280;70475;50.084;8.576;2024-02-04T08:45:07;101482.28;;;9.47;100.00
692;BME280;70475;50.084;8.576;2024-02-04T08:47:35;101477.84;;;9.55;100.00
692;BME280;70475;50.084;8.576;2024-02-04T08:50:03;101469.41;;;9.60;100.00
692;BME280;70475;50.084;8.576;2024-02-04T08:52:31;101469.44;;;9.68;100.00
692;BME280;70475;50.084;8.576;2024-02-04T08:54:58;101466.13;;;9.74;100.00
692;BME280;70475;50.084;8.576;2024-02-04T08:57:26;101465.34;;;9.81;100.00
692;BME280;70475;50.084;8.576;2024-02-04T08:59:55;101466.97;;;9.74;100.00
692;BME280;70475;50.084;8.576;2024-02-04T09:02:23;101463.16;;;9.77;100.00
692;BME280;70475;50.084;8.576;2024-02-04T09:04:50;101448.00;;;9.69;100.00
692;BME280;70475;50.084;8.576;2024-02-04T09:07:17;101448.38;;;9.82;100.00
692;BME280;70475;50.084;8.576;2024-02-04T09:09:46;101459.72;;;9.84;100.00
692;BME280;70475;50.084;8.576;2024-02-04T09:12:15;101473.47;;;9.72;100.00
692;BME280;70475;50.084;8.576;2024-02-04T09:14:42;101472.41;;;9.65;100.00
692;BME280;70475;50.084;8.576;2024-02-04T09:17:12;101474.41;;;9.63;100.00
692;BME280;70475;50.084;8.576;2024-02-04T09:19:40;101482.38;;;9.63;100.00
692;BME280;70475;50.084;8.576;2024-02-04T09:22:09;101480.84;;;9.60;100.00
692;BME280;70475;50.084;8.576;2024-02-04T09:24:36;101474.34;;;9.55;100.00
692;BME280;70475;50.084;8.576;2024-02-04T09:27:04;101485.53;;;9.66;100.00
692;BME280;70475;50.084;8.576;2024-02-04T09:29:32;101483.56;;;9.68;100.00
692;BME280;70475;50.084;8.576;2024-02-04T09:31:59;101475.81;;;9.75;100.00
692;BME280;70475;50.084;8.576;2024-02-04T09:34:28;101469.72;;;9.90;100.00
692;BME280;70475;50.084;8.576;2024-02-04T09:36:56;101473.88;;;9.93;100.00
692;BME280;70475;50.084;8.576;2024-02-04T09:39:24;101469.81;;;9.81;100.00
692;BME280;70475;50.084;8.576;2024-02-04T09:41:53;101468.09;;;9.97;100.00
692;BME280;70475;50.084;8.576;2024-02-04T09:44:23;101455.47;;;9.99;100.00
692;BME280;70475;50.084;8.576;2024-02-04T09:46:50;101466.84;;;10.09;100.00
692;BME280;70475;50.084;8.576;2024-02-04T09:49:19;101452.72;;;10.17;100.00
692;BME280;70475;50.084;8.576;2024-02-04T09:51:48;101447.22;;;10.10;100.00
692;BME280;70475;50.084;8.576;2024-02-04T09:54:18;101450.13;;;10.25;100.00
692;BME280;70475;50.084;8.576;2024-02-04T09:56:49;101446.94;;;10.29;100.00
692;BME280;70475;50.084;8.576;2024-02-04T09:59:17;101452.25;;;10.21;100.00
692;BME280;70475;50.084;8.576;2024-02-04T10:01:45;101448.41;;;10.24;100.00
692;BME280;70475;50.084;8.576;2024-02-04T10:04:13;101463.44;;;10.33;100.00
692;BME280;70475;50.084;8.576;2024-02-04T10:06:41;101448.28;;;10.33;100.00
692;BME280;70475;50.084;8.576;2024-02-04T10:09:10;101456.50;;;10.64;100.00
692;BME280;70475;50.084;8.576;2024-02-04T10:11:38;101458.63;;;10.44;100.00
692;BME280;70475;50.084;8.576;2024-02-04T10:14:06;101467.81;;;10.50;100.00
692;BME280;70475;50.084;8.576;2024-02-04T10:16:35;101457.50;;;10.47;100.00
692;BME280;70475;50.084;8.576;2024-02-04T10:19:03;101448.47;;;10.40;100.00
692;BME280;70475;50.084;8.576;2024-02-04T10:21:30;101453.00;;;10.56;100.00
692;BME280;70475;50.084;8.576;2024-02-04T10:23:58;101457.81;;;10.44;100.00
692;BME280;70475;50.084;8.576;2024-02-04T10:26:29;101461.63;;;10.41;100.00
692;BME280;70475;50.084;8.576;2024-02-04T10:28:58;101464.13;;;10.35;100.00
692;BME280;70475;50.084;8.576;2024-02-04T10:31:26;101467.91;;;10.32;100.00
692;BME280;70475;50.084;8.576;2024-02-04T10:33:55;101460.44;;;10.36;100.00
692;BME280;70475;50.084;8.576;2024-02-04T10:36:22;101460.16;;;10.47;100.00
692;BME280;70475;50.084;8.576;2024-02-04T10:38:50;101434.81;;;10.43;100.00
692;BME280;70475;50.084;8.576;2024-02-04T10:41:18;101448.13;;;10.43;100.00
692;BME280;70475;50.084;8.576;2024-02-04T10:43:47;101449.31;;;10.40;100.00
692;BME280;70475;50.084;8.576;2024-02-04T10:46:18;101451.31;;;10.47;100.00
692;BME280;70475;50.084;8.576;2024-02-04T10:48:51;101442.50;;;10.46;100.00
692;BME280;70475;50.084;8.576;2024-02-04T10:51:23;101440.97;;;10.35;100.00
692;BME280;70475;50.084;8.576;2024-02-04T10:53:53;101437.78;;;10.24;100.00
692;BME280;70475;50.084;8.576;2024-02-04T10:56:25;101449.38;;;10.07;100.00
692;BME280;70475;50.084;8.576;2024-02-04T10:58:54;101440.00;;;10.03;100.00
692;BME280;70475;50.084;8.576;2024-02-04T11:01:22;101433.84;;;10.02;100.00
692;BME280;70475;50.084;8.576;2024-02-04T11:03:51;101429.03;;;10.06;100.00
692;BME280;70475;50.084;8.576;2024-02-04T11:06:21;101428.28;;;10.21;100.00
692;BME280;70475;50.084;8.576;2024-02-04T11:08:50;101422.28;;;10.11;100.00
692;BME280;70475;50.084;8.576;2024-02-04T11:11:22;101420.66;;;10.26;100.00
692;BME280;70475;50.084;8.576;2024-02-04T11:13:54;101410.03;;;10.34;100.00
692;BME280;70475;50.084;8.576;2024-02-04T11:16:34;101389.91;;;10.48;100.00
692;BME280;70475;50.084;8.576;2024-02-04T11:19:13;101397.56;;;10.35;100.00
692;BME280;70475;50.084;8.576;2024-02-04T11:22:26;101393.19;;;10.34;100.00
692;BME280;70475;50.084;8.576;2024-02-04T11:25:12;101405.22;;;10.46;100.00
692;BME280;70475;50.084;8.576;2024-02-04T11:27:43;101394.56;;;10.46;100.00
692;BME280;70475;50.084;8.576;2024-02-04T11:30:13;101394.75;;;10.53;100.00
692;BME280;70475;50.084;8.576;2024-02-04T11:32:41;101391.25;;;10.44;100.00
692;BME280;70475;50.084;8.576;2024-02-04T11:35:09;101407.72;;;10.56;100.00
692;BME280;70475;50.084;8.576;2024-02-04T11:37:38;101397.56;;;10.35;100.00
692;BME280;70475;50.084;8.576;2024-02-04T11:40:14;101391.91;;;10.38;100.00
692;BME280;70475;50.084;8.576;2024-02-04T11:42:43;101405.38;;;10.36;100.00
692;BME280;70475;50.084;8.576;2024-02-04T11:45:13;101396.91;;;10.41;100.00
692;BME280;70475;50.084;8.576;2024-02-04T11:47:41;101392.88;;;10.37;100.00
692;BME280;70475;50.084;8.576;2024-02-04T11:50:09;101405.19;;;10.30;100.00
692;BME280;70475;50.084;8.576;2024-02-04T11:52:39;101396.38;;;10.37;100.00
692;BME280;70475;50.084;8.576;2024-02-04T11:55:13;101403.03;;;10.33;100.00
692;BME280;70475;50.084;8.576;2024-02-04T11:57:41;101400.88;;;10.37;100.00
692;BME280;70475;50.084;8.576;2024-02-04T12:00:09;101401.56;;;10.47;100.00
692;BME280;70475;50.084;8.576;2024-02-04T12:02:39;101404.53;;;10.36;100.00
692;BME280;70475;50.084;8.576;2024-02-04T12:05:07;101401.03;;;10.35;100.00
692;BME280;70475;50.084;8.576;2024-02-04T12:07:35;101388.72;;;10.34;100.00
692;BME280;70475;50.084;8.576;2024-02-04T12:10:09;101375.09;;;10.37;100.00
692;BME280;70475;50.084;8.576;2024-02-04T12:12:37;101386.53;;;10.30;100.00
692;BME280;70475;50.084;8.576;2024-02-04T12:15:06;101393.38;;;10.32;100.00
692;BME280;70475;50.084;8.576;2024-02-04T12:17:34;101378.91;;;10.35;100.00
692;BME280;70475;50.084;8.576;2024-02-04T12:20:03;101377.06;;;10.35;100.00
692;BME280;70475;50.084;8.576;2024-02-04T12:22:32;101379.25;;;10.32;100.00
692;BME280;70475;50.084;8.576;2024-02-04T12:25:00;101377.41;;;10.24;100.00
692;BME280;70475;50.084;8.576;2024-02-04T12:27:28;101373.59;;;10.35;100.00
692;BME280;70475;50.084;8.576;2024-02-04T12:29:56;101379.25;;;10.32;100.00
692;BME280;70475;50.084;8.576;2024-02-04T12:32:23;101372.91;;;10.25;100.00
692;BME280;70475;50.084;8.576;2024-02-04T12:34:51;101371.38;;;10.22;100.00
692;BME280;70475;50.084;8.576;2024-02-04T12:37:22;101375.56;;;10.25;100.00
692;BME280;70475;50.084;8.576;2024-02-04T12:39:51;101360.09;;;10.28;100.00
692;BME280;70475;50.084;8.576;2024-02-04T12:42:18;101356.94;;;10.33;100.00
692;BME280;70475;50.084;8.576;2024-02-04T12:44:48;101352.94;;;10.37;100.00
692;BME280;70475;50.084;8.576;2024-02-04T12:47:18;101348.44;;;10.37;100.00
692;BME280;70475;50.084;8.576;2024-02-04T12:49:46;101365.59;;;10.35;100.00
692;BME280;70475;50.084;8.576;2024-02-04T12:52:14;101365.59;;;10.35;100.00
692;BME280;70475;50.084;8.576;2024-02-04T12:54:44;101355.28;;;10.40;100.00
692;BME280;70475;50.084;8.576;2024-02-04T12:57:21;101337.63;;;10.39;100.00
692;BME280;70475;50.084;8.576;2024-02-04T12:59:49;101342.81;;;10.40;100.00
692;BME280;70475;50.084;8.576;2024-02-04T13:02:17;101344.31;;;10.51;100.00
692;BME280;70475;50.084;8.576;2024-02-04T13:04:44;101348.16;;;10.49;100.00
692;BME280;70475;50.084;8.576;2024-02-04T13:07:13;101349.44;;;10.44;100.00
692;BME280;70475;50.084;8.576;2024-02-04T13:09:44;101335.97;;;10.46;100.00
692;BME280;70475;50.084;8.576;2024-02-04T13:12:14;101342.31;;;10.45;100.00
692;BME280;70475;50.084;8.576;2024-02-04T13:14:43;101350.28;;;10.45;100.00